Time;durP1;ratioP1;P1;durP2;ratioP2;P2;SDS_P1;SDS_P2;PMS_P1;PMS_P2;Temp;Humidity;BMP_temperature;BMP_pressure;BME280_temperature;BME280_humidity;BME280_pressure;Samples;Min_cycle;Max_cycle;Signal;HPM_P1;HPM_P2
2022/08/25 00:02:05;;;;;;;2.30;1.13;;;16.40;99.90;;;;;;5078288;28;20574;-87
2022/08/25 00:04:34;;;;;;;1.53;1.43;;;16.30;99.90;;;;;;5079041;28;20458;-86
2022/08/25 00:07:01;;;;;;;1.13;0.93;;;16.30;99.90;;;;;;5074594;28;20541;-90
2022/08/25 00:09:28;;;;;;;1.20;1.03;;;16.30;99.90;;;;;;5080595;28;20545;-87
2022/08/25 00:11:55;;;;;;;2.07;1.03;;;16.30;99.90;;;;;;5078427;28;20474;-88
2022/08/25 00:14:25;;;;;;;1.47;0.80;;;16.20;99.90;;;;;;5073081;28;20548;-88
2022/08/25 00:16:54;;;;;;;2.23;1.80;;;16.10;99.90;;;;;;5077431;28;20482;-86
2022/08/25 00:19:24;;;;;;;0.80;0.70;;;16.10;99.90;;;;;;5074822;28;20477;-87
2022/08/25 00:21:51;;;;;;;1.37;1.17;;;16.00;99.90;;;;;;5077577;28;20606;-88
2022/08/25 00:24:21;;;;;;;1.20;1.03;;;16.00;99.90;;;;;;5079646;28;20451;-88
2022/08/25 00:26:50;;;;;;;3.50;1.07;;;16.00;99.90;;;;;;5071523;28;20539;-87
2022/08/25 00:29:19;;;;;;;1.47;0.90;;;16.10;99.90;;;;;;5076426;28;20454;-87
2022/08/25 00:31:46;;;;;;;3.23;1.13;;;16.10;99.90;;;;;;5083868;28;21243;-86
2022/08/25 00:34:18;;;;;;;1.10;1.00;;;16.10;99.90;;;;;;5074838;28;20525;-86
2022/08/25 00:36:50;;;;;;;1.23;1.13;;;16.00;99.90;;;;;;5081162;28;20455;-87
2022/08/25 00:39:19;;;;;;;1.90;1.13;;;16.00;99.90;;;;;;5079197;28;20475;-86
2022/08/25 00:41:48;;;;;;;1.90;1.30;;;16.00;99.90;;;;;;5074421;28;20561;-87
2022/08/25 00:44:17;;;;;;;1.63;1.20;;;16.10;99.90;;;;;;5078238;28;20545;-88
2022/08/25 00:46:47;;;;;;;1.40;1.10;;;16.00;99.90;;;;;;5075476;28;20942;-85
2022/08/25 00:49:19;;;;;;;3.20;0.90;;;16.00;99.90;;;;;;5074055;28;20471;-86
2022/08/25 00:51:50;;;;;;;1.67;1.57;;;15.90;99.90;;;;;;5081108;28;21040;-86
2022/08/25 00:54:21;;;;;;;1.13;0.80;;;15.90;99.90;;;;;;5080191;28;20539;-90
2022/08/25 00:56:50;;;;;;;1.20;0.90;;;15.90;99.90;;;;;;5080835;28;20459;-86
2022/08/25 00:59:19;;;;;;;1.43;0.93;;;15.90;99.90;;;;;;5083223;28;20515;-86
2022/08/25 01:01:47;;;;;;;4.50;1.00;;;15.80;99.90;;;;;;5081017;28;20516;-87
2022/08/25 01:04:16;;;;;;;3.77;1.20;;;15.90;99.90;;;;;;5079524;28;20454;-88
2022/08/25 01:06:44;;;;;;;1.80;0.80;;;16.10;99.90;;;;;;5082053;28;20539;-86
2022/08/25 01:09:13;;;;;;;1.73;0.97;;;16.00;99.90;;;;;;5076076;28;20537;-88
2022/08/25 01:11:41;;;;;;;5.37;1.90;;;16.00;99.90;;;;;;5080229;28;20575;-86
2022/08/25 01:14:10;;;;;;;1.10;1.00;;;16.10;99.90;;;;;;5078930;28;20460;-86
2022/08/25 01:16:39;;;;;;;1.87;1.13;;;16.10;99.90;;;;;;5084447;28;20464;-87
2022/08/25 01:19:07;;;;;;;1.03;0.93;;;16.10;99.90;;;;;;5081264;28;21035;-85
2022/08/25 01:21:42;;;;;;;0.70;0.70;;;16.20;99.90;;;;;;5078293;28;20460;-87
2022/08/25 01:24:14;;;;;;;1.37;0.90;;;16.10;99.90;;;;;;5079819;28;20489;-87
2022/08/25 01:26:41;;;;;;;1.27;1.00;;;16.00;99.90;;;;;;5082305;28;20924;-89
2022/08/25 01:29:24;;;;;;;4.13;1.93;;;16.00;99.90;;;;;;5082897;28;20459;-87
2022/08/25 01:31:56;;;;;;;2.63;0.70;;;16.00;99.90;;;;;;5079118;28;20584;-86
2022/08/25 01:34:25;;;;;;;1.80;1.30;;;16.10;99.90;;;;;;5075489;28;20950;-86
2022/08/25 01:36:54;;;;;;;1.57;1.43;;;16.10;99.90;;;;;;5075507;28;20973;-87
2022/08/25 01:39:22;;;;;;;0.93;0.90;;;16.10;99.90;;;;;;5081924;28;20977;-85
2022/08/25 01:42:09;;;;;;;0.90;0.70;;;16.00;99.90;;;;;;5079412;28;20471;-86
2022/08/25 01:44:38;;;;;;;1.77;0.90;;;16.10;99.90;;;;;;5076931;28;20491;-86
2022/08/25 01:47:07;;;;;;;1.10;1.00;;;16.20;99.90;;;;;;5076258;28;20467;-86
2022/08/25 01:49:34;;;;;;;1.90;1.23;;;16.10;99.90;;;;;;5075791;28;20478;-89
2022/08/25 01:52:11;;;;;;;1.57;1.27;;;16.10;99.90;;;;;;5075259;28;20946;-86
2022/08/25 01:54:38;;;;;;;1.20;0.80;;;16.10;99.90;;;;;;5082448;28;20615;-88
2022/08/25 01:57:06;;;;;;;1.67;1.30;;;16.10;99.90;;;;;;5074317;28;20818;-86
2022/08/25 01:59:33;;;;;;;1.93;1.30;;;16.00;99.90;;;;;;5075283;28;20471;-86
2022/08/25 02:02:00;;;;;;;1.27;1.13;;;15.90;99.90;;;;;;5079169;28;20460;-87
2022/08/25 02:04:30;;;;;;;2.47;1.30;;;15.80;99.90;;;;;;5078415;28;20512;-86
2022/08/25 02:06:58;;;;;;;2.37;1.07;;;15.80;99.90;;;;;;5080642;28;20546;-86
2022/08/25 02:09:26;;;;;;;1.60;0.93;;;15.70;99.90;;;;;;5079478;28;21162;-86
2022/08/25 02:11:53;;;;;;;4.00;1.10;;;15.70;99.90;;;;;;5080398;28;20500;-90
2022/08/25 02:14:20;;;;;;;2.60;2.23;;;15.70;99.90;;;;;;5077954;28;20475;-85
2022/08/25 02:16:49;;;;;;;1.93;1.00;;;15.70;99.90;;;;;;5083413;28;20911;-86
2022/08/25 02:19:18;;;;;;;0.80;0.60;;;15.60;99.90;;;;;;5078836;28;20474;-86
2022/08/25 02:21:45;;;;;;;2.97;1.03;;;15.70;99.90;;;;;;5076932;28;20526;-86
2022/08/25 02:24:13;;;;;;;2.00;0.67;;;15.70;99.90;;;;;;5081982;28;20491;-87
2022/08/25 02:26:42;;;;;;;1.90;1.10;;;15.60;99.90;;;;;;5083612;28;20469;-86
2022/08/25 02:29:09;;;;;;;1.13;0.70;;;15.70;99.90;;;;;;5076326;28;20540;-86
2022/08/25 02:31:38;;;;;;;1.97;1.03;;;15.80;99.90;;;;;;5079371;28;20478;-87
2022/08/25 02:34:05;;;;;;;3.50;0.80;;;15.70;99.90;;;;;;5078536;28;20458;-86
2022/08/25 02:36:32;;;;;;;1.43;1.10;;;15.70;99.90;;;;;;5081795;28;20512;-87
2022/08/25 02:39:00;;;;;;;2.20;0.80;;;15.60;99.90;;;;;;5079574;28;20945;-86
2022/08/25 02:41:29;;;;;;;3.27;1.23;;;15.60;99.90;;;;;;5080757;28;20904;-86
2022/08/25 02:43:57;;;;;;;0.90;0.80;;;15.50;99.90;;;;;;5072835;28;20496;-85
2022/08/25 02:46:24;;;;;;;1.10;1.00;;;15.40;99.90;;;;;;5073887;28;20470;-86
2022/08/25 02:48:52;;;;;;;3.57;0.93;;;15.40;99.90;;;;;;5072086;28;20506;-85
2022/08/25 02:51:20;;;;;;;1.97;0.87;;;15.40;99.90;;;;;;5079443;28;20466;-85
2022/08/25 02:53:47;;;;;;;1.67;1.43;;;15.40;99.90;;;;;;5075226;28;20466;-85
2022/08/25 02:56:17;;;;;;;2.50;1.33;;;15.30;99.90;;;;;;5078138;28;20463;-86
2022/08/25 02:58:44;;;;;;;1.20;0.73;;;15.30;99.90;;;;;;5073590;28;20913;-86
2022/08/25 03:01:14;;;;;;;1.60;1.10;;;15.30;99.90;;;;;;5078595;28;20462;-86
2022/08/25 03:03:43;;;;;;;1.43;1.33;;;15.30;99.90;;;;;;5076179;28;20485;-86
2022/08/25 03:06:12;;;;;;;2.10;1.03;;;15.30;99.90;;;;;;5073149;28;21053;-88
2022/08/25 03:08:40;;;;;;;1.00;0.87;;;15.30;99.90;;;;;;5077459;28;20453;-86
2022/08/25 03:11:07;;;;;;;2.20;0.90;;;15.20;99.90;;;;;;5086608;28;20526;-86
2022/08/25 03:13:34;;;;;;;2.93;1.40;;;15.30;99.90;;;;;;5072999;28;20466;-85
2022/08/25 03:16:02;;;;;;;1.17;0.87;;;15.40;99.90;;;;;;5076876;28;20463;-88
2022/08/25 03:18:31;;;;;;;2.50;1.37;;;15.30;99.90;;;;;;5080195;28;20956;-85
2022/08/25 03:20:58;;;;;;;1.70;1.57;;;15.20;99.90;;;;;;5077191;28;20463;-86
2022/08/25 03:23:26;;;;;;;1.57;1.37;;;15.20;99.90;;;;;;5084813;28;20514;-85
2022/08/25 03:28:38;;;;;;;1.23;1.10;;;15.20;99.90;;;;;;5078354;28;20481;-86
2022/08/25 03:31:06;;;;;;;1.13;1.00;;;15.20;99.90;;;;;;5076768;28;21174;-85
2022/08/25 03:33:35;;;;;;;1.07;0.93;;;15.10;99.90;;;;;;5080323;28;20461;-86
2022/08/25 03:36:02;;;;;;;0.83;0.80;;;15.20;99.90;;;;;;5072522;28;20478;-86
2022/08/25 03:38:29;;;;;;;1.80;1.10;;;15.10;99.90;;;;;;5077389;28;20519;-85
2022/08/25 03:40:57;;;;;;;1.00;0.90;;;15.10;99.90;;;;;;5079272;28;20475;-86
2022/08/25 03:43:24;;;;;;;2.40;1.63;;;15.10;99.90;;;;;;5077850;28;20520;-86
2022/08/25 03:45:51;;;;;;;0.77;0.77;;;15.10;99.90;;;;;;5079747;28;20468;-85
2022/08/25 03:48:18;;;;;;;2.33;1.83;;;15.20;99.90;;;;;;5079808;28;20560;-86
2022/08/25 03:50:48;;;;;;;1.77;0.70;;;15.20;99.90;;;;;;5078446;28;20514;-85
2022/08/25 03:53:15;;;;;;;1.30;1.00;;;15.20;99.90;;;;;;5077399;28;20946;-88
2022/08/25 03:55:43;;;;;;;1.50;0.80;;;15.20;99.90;;;;;;5086405;28;21008;-86
2022/08/25 03:58:11;;;;;;;1.20;1.10;;;15.30;99.90;;;;;;5079986;28;20545;-86
2022/08/25 04:00:38;;;;;;;1.07;0.90;;;15.40;99.90;;;;;;5074390;28;20477;-87
2022/08/25 04:03:05;;;;;;;1.10;1.00;;;15.30;99.90;;;;;;5079500;28;21231;-86
2022/08/25 04:05:32;;;;;;;1.30;0.97;;;15.30;99.90;;;;;;5075360;28;20453;-85
2022/08/25 04:08:01;;;;;;;1.43;1.23;;;15.30;99.90;;;;;;5077754;28;21189;-85
2022/08/25 04:10:28;;;;;;;1.10;1.00;;;15.40;99.90;;;;;;5076426;28;21243;-84
2022/08/25 04:12:55;;;;;;;1.47;0.90;;;15.50;99.90;;;;;;5076582;28;20467;-85
2022/08/25 04:15:23;;;;;;;1.47;1.33;;;15.60;99.90;;;;;;5073694;28;20729;-86
2022/08/25 04:17:50;;;;;;;1.17;1.00;;;15.70;99.90;;;;;;5080610;28;20676;-86
2022/08/25 04:20:17;;;;;;;2.33;1.43;;;15.80;99.90;;;;;;5077177;28;20536;-86
2022/08/25 04:22:44;;;;;;;1.07;1.00;;;15.90;99.90;;;;;;5074382;28;20466;-86
2022/08/25 04:25:13;;;;;;;1.40;1.20;;;16.10;99.90;;;;;;5074623;28;20888;-85
2022/08/25 04:27:40;;;;;;;1.20;1.10;;;16.20;99.90;;;;;;5071616;28;20459;-87
2022/08/25 04:30:09;;;;;;;1.23;0.93;;;16.10;99.90;;;;;;5078553;28;20465;-85
2022/08/25 04:32:36;;;;;;;1.77;1.40;;;16.20;99.90;;;;;;5076866;28;20865;-88
2022/08/25 04:35:06;;;;;;;1.33;1.00;;;16.20;99.90;;;;;;5073920;28;20912;-89
2022/08/25 04:37:33;;;;;;;4.13;1.47;;;16.20;99.90;;;;;;5075593;28;20515;-85
2022/08/25 04:40:00;;;;;;;1.13;1.03;;;16.20;99.90;;;;;;5070128;28;20492;-86
2022/08/25 04:42:29;;;;;;;1.00;0.90;;;16.30;99.90;;;;;;5070276;28;20823;-86
2022/08/25 04:44:56;;;;;;;1.23;1.13;;;16.40;99.90;;;;;;5080518;28;20490;-85
2022/08/25 04:47:23;;;;;;;1.20;1.10;;;16.40;99.90;;;;;;5079994;28;20470;-86
2022/08/25 04:49:50;;;;;;;3.00;1.43;;;16.40;99.90;;;;;;5073526;28;20466;-86
2022/08/25 04:52:17;;;;;;;1.63;1.10;;;16.40;99.90;;;;;;5073501;28;20954;-85
2022/08/25 04:54:45;;;;;;;1.43;0.83;;;16.40;99.90;;;;;;5072532;28;20519;-87
2022/08/25 04:57:12;;;;;;;1.67;1.47;;;16.40;99.90;;;;;;5071499;28;20456;-87
2022/08/25 04:59:40;;;;;;;1.67;1.57;;;16.50;99.90;;;;;;5069468;28;20731;-88
2022/08/25 05:02:07;;;;;;;1.67;1.13;;;16.40;99.90;;;;;;5077244;28;20451;-86
2022/08/25 05:04:36;;;;;;;1.43;1.33;;;16.40;99.90;;;;;;5076135;28;20498;-87
2022/08/25 05:07:04;;;;;;;0.93;0.80;;;16.30;99.90;;;;;;5067882;28;20994;-85
2022/08/25 05:09:32;;;;;;;2.20;1.07;;;16.50;99.90;;;;;;5072374;28;20459;-85
2022/08/25 05:11:59;;;;;;;1.87;1.07;;;16.50;99.90;;;;;;5074616;28;20541;-86
2022/08/25 05:14:26;;;;;;;1.73;1.03;;;16.60;99.90;;;;;;5067861;28;20499;-86
2022/08/25 05:16:55;;;;;;;1.17;0.90;;;16.80;99.90;;;;;;5078800;28;20455;-86
2022/08/25 05:19:23;;;;;;;0.90;0.73;;;16.90;99.90;;;;;;5078880;28;20470;-88
2022/08/25 05:21:50;;;;;;;4.10;1.00;;;17.10;99.90;;;;;;5077290;28;20477;-88
2022/08/25 05:24:17;;;;;;;1.77;1.40;;;17.10;99.90;;;;;;5076997;28;20504;-85
2022/08/25 05:26:44;;;;;;;1.27;1.13;;;17.10;99.90;;;;;;5074664;28;20459;-86
2022/08/25 05:29:11;;;;;;;5.60;1.60;;;17.20;99.90;;;;;;5076359;28;20536;-86
2022/08/25 05:31:38;;;;;;;2.00;1.00;;;17.20;99.90;;;;;;5074344;28;20491;-86
2022/08/25 05:34:07;;;;;;;7.50;1.13;;;17.40;99.90;;;;;;5074972;28;20540;-86
2022/08/25 05:36:35;;;;;;;1.63;1.30;;;17.40;99.90;;;;;;5074008;28;20513;-86
2022/08/25 05:39:03;;;;;;;3.03;1.27;;;17.30;99.90;;;;;;5083084;28;20893;-86
2022/08/25 05:41:32;;;;;;;6.43;1.27;;;17.40;99.90;;;;;;5072020;28;20495;-85
2022/08/25 05:43:59;;;;;;;1.10;1.00;;;17.60;99.90;;;;;;5077522;28;21016;-88
2022/08/25 05:46:26;;;;;;;1.40;1.03;;;17.60;99.90;;;;;;5077846;28;20508;-86
2022/08/25 05:48:53;;;;;;;1.87;1.47;;;17.70;99.90;;;;;;5076638;28;20538;-88
2022/08/25 05:51:22;;;;;;;2.00;1.63;;;17.70;99.90;;;;;;5070789;28;20472;-85
2022/08/25 05:53:51;;;;;;;0.97;0.83;;;17.60;99.90;;;;;;5071209;28;20467;-84
2022/08/25 05:56:18;;;;;;;1.20;1.07;;;17.40;99.90;;;;;;5074556;28;20459;-86
2022/08/25 05:58:46;;;;;;;2.70;1.43;;;17.30;99.90;;;;;;5071732;28;20573;-85
2022/08/25 06:04:08;;;;;;;6.73;1.17;;;17.40;99.90;;;;;;5074402;28;20506;-85
2022/08/25 06:06:39;;;;;;;1.87;0.93;;;17.30;99.90;;;;;;5075220;28;21083;-85
2022/08/25 06:09:07;;;;;;;1.10;1.00;;;17.30;99.90;;;;;;5079518;28;20455;-83
2022/08/25 06:11:36;;;;;;;1.60;1.50;;;17.40;99.90;;;;;;5072701;28;20887;-85
2022/08/25 06:14:03;;;;;;;1.20;1.10;;;17.60;99.90;;;;;;5071233;28;20502;-85
2022/08/25 06:16:33;;;;;;;1.80;1.57;;;17.70;99.90;;;;;;5070407;28;20464;-86
2022/08/25 06:19:01;;;;;;;1.10;0.90;;;17.70;99.90;;;;;;5075703;28;20525;-83
2022/08/25 06:21:27;;;;;;;1.47;0.90;;;17.80;99.90;;;;;;5081054;28;20546;-83
2022/08/25 06:23:56;;;;;;;1.30;1.17;;;18.00;99.90;;;;;;5071039;28;20563;-84
2022/08/25 06:26:23;;;;;;;1.23;0.90;;;18.10;99.90;;;;;;5072956;28;20471;-84
2022/08/25 06:28:51;;;;;;;2.20;1.57;;;18.20;99.90;;;;;;5073896;28;20498;-84
2022/08/25 06:31:18;;;;;;;1.10;0.93;;;18.70;99.90;;;;;;5072834;28;20463;-84
2022/08/25 06:33:45;;;;;;;3.40;1.57;;;18.80;99.90;;;;;;5071456;28;21067;-84
2022/08/25 06:36:12;;;;;;;1.70;1.30;;;19.10;99.90;;;;;;5080516;28;20449;-86
2022/08/25 06:38:39;;;;;;;1.27;0.80;;;19.20;99.90;;;;;;5074649;28;20500;-84
2022/08/25 06:41:11;;;;;;;1.80;1.53;;;19.40;99.90;;;;;;5069308;28;20848;-85
2022/08/25 06:43:39;;;;;;;1.50;1.10;;;19.60;99.90;;;;;;5065544;28;20743;-84
2022/08/25 06:46:10;;;;;;;2.70;1.53;;;19.70;99.90;;;;;;5067660;28;21278;-85
2022/08/25 06:48:37;;;;;;;1.20;1.07;;;19.80;99.90;;;;;;5076014;28;20539;-85
2022/08/25 06:51:06;;;;;;;1.73;1.00;;;20.00;99.90;;;;;;5072098;28;20462;-88
2022/08/25 06:53:35;;;;;;;1.30;1.20;;;20.00;99.90;;;;;;5081476;28;20449;-87
2022/08/25 06:56:03;;;;;;;1.07;0.90;;;20.00;99.90;;;;;;5077855;28;20947;-85
2022/08/25 06:58:32;;;;;;;1.90;1.80;;;20.20;99.90;;;;;;5073463;28;20841;-86
2022/08/25 07:01:07;;;;;;;6.70;1.40;;;20.30;99.90;;;;;;5077738;28;20560;-85
2022/08/25 07:03:34;;;;;;;1.43;1.17;;;20.30;99.90;;;;;;5075327;28;20515;-86
2022/08/25 07:06:01;;;;;;;2.60;2.40;;;20.30;99.90;;;;;;5068073;28;20563;-92
2022/08/25 07:08:28;;;;;;;2.03;1.53;;;20.30;99.90;;;;;;5073437;28;20467;-89
2022/08/25 07:10:55;;;;;;;1.73;1.20;;;20.40;99.90;;;;;;5072256;28;20462;-87
2022/08/25 07:13:22;;;;;;;1.83;1.03;;;20.30;99.90;;;;;;5086193;28;20518;-88
2022/08/25 07:15:54;;;;;;;1.10;1.00;;;20.50;99.90;;;;;;5083483;28;20475;-85
2022/08/25 07:18:21;;;;;;;1.90;1.33;;;20.80;99.90;;;;;;5070649;28;20470;-88
2022/08/25 07:20:50;;;;;;;1.83;1.43;;;20.90;99.90;;;;;;5066940;28;20463;-88
2022/08/25 07:23:18;;;;;;;1.30;0.90;;;21.10;99.90;;;;;;5072847;28;20997;-85
2022/08/25 07:25:45;;;;;;;1.30;1.20;;;21.00;99.90;;;;;;5073816;28;20541;-86
2022/08/25 07:28:13;;;;;;;1.40;0.90;;;21.00;99.90;;;;;;5074133;28;20516;-91
2022/08/25 07:30:40;;;;;;;2.23;1.60;;;21.10;99.90;;;;;;5073602;28;20478;-89
2022/08/25 07:33:09;;;;;;;2.00;1.53;;;21.30;99.90;;;;;;5068073;28;20466;-87
2022/08/25 07:35:36;;;;;;;1.63;1.17;;;21.30;99.90;;;;;;5072167;28;20855;-86
2022/08/25 07:38:05;;;;;;;1.77;0.90;;;21.30;99.90;;;;;;5073687;28;20465;-86
2022/08/25 07:40:35;;;;;;;1.77;1.07;;;21.20;99.90;;;;;;5078743;28;20514;-86
2022/08/25 07:43:08;;;;;;;2.70;1.60;;;21.10;99.90;;;;;;5072819;28;20466;-86
2022/08/25 07:45:38;;;;;;;2.57;1.60;;;21.10;99.90;;;;;;5073987;28;20857;-86
2022/08/25 07:48:08;;;;;;;2.37;1.50;;;21.10;99.90;;;;;;5071768;28;20839;-86
2022/08/25 07:50:38;;;;;;;2.07;1.87;;;21.00;99.90;;;;;;5080334;28;20466;-86
2022/08/25 07:53:05;;;;;;;1.63;1.27;;;21.20;99.90;;;;;;5074691;28;20558;-86
2022/08/25 07:55:35;;;;;;;2.93;1.70;;;21.40;99.90;;;;;;5073426;28;20468;-88
2022/08/25 07:58:03;;;;;;;1.97;1.77;;;21.40;99.90;;;;;;5069770;28;20451;-85
2022/08/25 08:00:32;;;;;;;2.03;1.67;;;21.20;99.90;;;;;;5079782;28;20463;-86
2022/08/25 08:03:00;;;;;;;3.20;2.30;;;21.60;99.90;;;;;;5076884;28;20452;-89
2022/08/25 08:05:28;;;;;;;3.07;2.43;;;21.70;99.90;;;;;;5076797;28;20487;-89
2022/08/25 08:07:56;;;;;;;1.53;1.43;;;21.90;99.90;;;;;;5077033;28;20463;-85
2022/08/25 08:10:24;;;;;;;2.77;1.80;;;21.90;99.90;;;;;;5073825;28;20447;-86
2022/08/25 08:12:52;;;;;;;5.50;2.40;;;22.20;99.90;;;;;;5072637;28;20451;-86
2022/08/25 08:15:20;;;;;;;3.63;2.47;;;22.40;99.90;;;;;;5076124;28;21021;-90
2022/08/25 08:17:47;;;;;;;1.50;1.40;;;22.60;99.90;;;;;;5071424;28;20466;-86
2022/08/25 08:20:14;;;;;;;3.90;2.17;;;22.50;99.90;;;;;;5079658;28;20475;-86
2022/08/25 08:22:44;;;;;;;5.17;2.20;;;22.30;99.90;;;;;;5074133;28;20954;-91
2022/08/25 08:25:13;;;;;;;3.30;2.90;;;22.30;99.90;;;;;;5070545;28;20861;-87
2022/08/25 08:27:41;;;;;;;3.20;2.40;;;22.20;99.90;;;;;;5077321;28;20840;-88
2022/08/25 08:30:10;;;;;;;4.40;2.90;;;22.30;99.90;;;;;;5071697;28;20550;-86
2022/08/25 08:32:37;;;;;;;3.57;3.27;;;22.00;99.90;;;;;;5068305;28;20470;-85
2022/08/25 08:35:05;;;;;;;3.57;3.27;;;22.10;99.90;;;;;;5076794;28;20459;-84
2022/08/25 08:37:33;;;;;;;3.10;2.80;;;22.20;99.90;;;;;;5064789;28;20463;-85
2022/08/25 08:40:00;;;;;;;5.00;3.27;;;22.20;99.90;;;;;;5083547;28;20462;-86
2022/08/25 08:42:46;;;;;;;10.00;4.43;;;22.10;99.90;;;;;;5072914;28;20455;-86
2022/08/25 08:45:27;;;;;;;4.83;3.00;;;22.20;99.90;;;;;;5070893;28;20836;-87
2022/08/25 08:48:13;;;;;;;5.03;3.00;;;22.50;99.90;;;;;;5070415;28;20470;-86
2022/08/25 08:50:49;;;;;;;6.53;4.10;;;22.80;99.90;;;;;;5068031;28;20467;-88
2022/08/25 08:53:27;;;;;;;5.90;3.13;;;22.50;99.90;;;;;;5074398;28;20571;-88
2022/08/25 08:55:57;;;;;;;4.03;3.00;;;22.50;99.90;;;;;;5079629;28;21006;-87
2022/08/25 08:58:41;;;;;;;7.50;3.77;;;23.00;99.90;;;;;;5074584;28;20454;-86
2022/08/25 09:01:12;;;;;;;5.03;3.97;;;23.30;99.90;;;;;;5076667;28;20976;-86
2022/08/25 09:03:42;;;;;;;9.50;3.87;;;23.30;99.90;;;;;;5075287;28;20474;-91
2022/08/25 09:06:13;;;;;;;3.40;3.00;;;23.40;99.90;;;;;;5081927;28;20474;-86
2022/08/25 09:08:43;;;;;;;5.17;4.30;;;22.90;99.90;;;;;;5079773;28;20829;-84
2022/08/25 09:11:20;;;;;;;4.30;3.87;;;22.90;99.90;;;;;;5079337;28;20498;-86
2022/08/25 09:14:04;;;;;;;2.87;2.67;;;22.80;99.90;;;;;;5076000;28;20462;-86
2022/08/25 09:16:57;;;;;;;4.80;3.17;;;23.10;99.90;;;;;;5077301;28;20470;-86
2022/08/25 09:19:54;;;;;;;5.03;3.77;;;23.40;99.90;;;;;;5079586;28;20466;-86
2022/08/25 09:22:31;;;;;;;6.47;3.40;;;23.30;99.90;;;;;;5077789;28;20491;-86
2022/08/25 09:25:09;;;;;;;5.77;3.10;;;23.30;99.90;;;;;;5080888;28;20479;-86
2022/08/25 09:27:45;;;;;;;3.07;2.70;;;23.50;99.90;;;;;;5080294;28;20454;-93
2022/08/25 09:30:16;;;;;;;8.97;3.83;;;23.40;99.90;;;;;;5074563;28;22243;-86
2022/08/25 09:32:46;;;;;;;5.47;3.40;;;23.40;99.90;;;;;;5076611;28;20456;-87
2022/08/25 09:35:18;;;;;;;3.50;2.70;;;23.40;99.90;;;;;;5075154;28;20467;-86
2022/08/25 09:37:56;;;;;;;4.97;3.70;;;23.70;99.90;;;;;;5072440;28;20485;-91
2022/08/25 09:40:24;;;;;;;2.90;2.33;;;23.80;99.90;;;;;;5075619;28;20459;-86
2022/08/25 09:42:55;;;;;;;3.17;2.97;;;24.10;99.90;;;;;;5076161;28;20458;-90
2022/08/25 09:45:39;;;;;;;4.90;4.13;;;24.40;99.90;;;;;;5080232;28;20502;-84
2022/08/25 09:48:22;;;;;;;3.87;3.43;;;24.40;99.90;;;;;;5081076;28;20452;-86
2022/08/25 09:50:50;;;;;;;7.53;4.10;;;24.60;99.90;;;;;;5081414;28;20477;-86
2022/08/25 09:53:18;;;;;;;6.13;3.83;;;24.70;99.90;;;;;;5078210;28;20471;-86
2022/08/25 09:55:54;;;;;;;4.10;3.47;;;24.60;99.90;;;;;;5074626;28;20459;-85
2022/08/25 09:58:24;;;;;;;5.53;4.57;;;24.50;99.90;;;;;;5078319;28;20843;-91
2022/08/25 10:01:05;;;;;;;5.97;4.20;;;24.70;99.90;;;;;;5083126;28;20668;-86
2022/08/25 10:03:33;;;;;;;6.80;4.37;;;24.50;99.90;;;;;;5076203;28;20450;-87
2022/08/25 10:06:07;;;;;;;7.90;3.87;;;24.90;99.90;;;;;;5083608;28;20486;-87
2022/08/25 10:08:38;;;;;;;8.47;4.83;;;25.00;99.90;;;;;;5085123;28;20462;-87
2022/08/25 10:11:08;;;;;;;6.70;3.50;;;24.80;99.90;;;;;;5093323;28;20512;-86
2022/08/25 10:13:41;;;;;;;12.37;5.60;;;24.90;99.90;;;;;;5091834;28;20835;-86
2022/08/25 10:16:21;;;;;;;4.43;4.03;;;25.10;99.90;;;;;;5079764;28;20854;-88
2022/08/25 10:19:01;;;;;;;6.20;5.63;;;25.40;99.90;;;;;;5076516;28;20836;-87
2022/08/25 10:21:28;;;;;;;10.07;5.50;;;25.30;99.90;;;;;;5082126;28;20456;-87
2022/08/25 10:23:56;;;;;;;7.73;5.03;;;25.40;99.90;;;;;;5082025;28;20528;-86
2022/08/25 10:26:32;;;;;;;5.87;4.87;;;25.30;99.90;;;;;;5086156;28;20573;-90
2022/08/25 10:29:11;;;;;;;6.67;4.37;;;24.90;99.90;;;;;;5077733;28;20523;-85
2022/08/25 10:31:50;;;;;;;5.20;4.80;;;24.60;99.90;;;;;;5073372;28;21225;-86
2022/08/25 10:34:40;;;;;;;7.50;4.97;;;24.50;99.90;;;;;;5077576;28;20516;-84
2022/08/25 10:37:16;;;;;;;5.20;3.73;;;24.70;99.90;;;;;;5070641;28;20561;-86
2022/08/25 10:39:45;;;;;;;5.23;4.53;;;24.60;99.90;;;;;;5068424;28;20459;-87
2022/08/25 10:42:29;;;;;;;6.83;4.57;;;25.10;99.90;;;;;;5076207;28;20466;-84
2022/08/25 10:48:24;;;;;;;5.17;3.67;;;25.10;99.90;;;;;;5079524;28;20443;-84
2022/08/25 10:50:59;;;;;;;8.30;4.00;;;25.20;99.90;;;;;;5072292;28;20485;-85
2022/08/25 10:53:34;;;;;;;9.93;5.20;;;25.20;99.90;;;;;;5081471;28;20523;-84
2022/08/25 10:56:11;;;;;;;6.87;4.10;;;25.30;99.90;;;;;;5080514;28;21006;-84
2022/08/25 10:58:59;;;;;;;6.57;5.87;;;25.30;99.90;;;;;;5079542;28;21031;-83
2022/08/25 11:01:40;;;;;;;5.63;5.23;;;25.70;99.90;;;;;;5078649;28;20558;-88
2022/08/25 11:04:14;;;;;;;8.67;4.83;;;26.10;99.90;;;;;;5075591;28;20518;-86
2022/08/25 11:06:45;;;;;;;6.03;3.77;;;25.70;99.90;;;;;;5079430;28;20475;-82
2022/08/25 11:09:18;;;;;;;5.30;4.17;;;25.20;99.90;;;;;;5068591;28;20534;-82
2022/08/25 11:11:51;;;;;;;5.17;4.63;;;25.00;99.90;;;;;;5069472;28;20444;-82
2022/08/25 11:14:21;;;;;;;4.00;3.60;;;25.10;99.90;;;;;;5066038;28;20471;-84
2022/08/25 11:16:53;;;;;;;4.60;4.20;;;25.00;99.90;;;;;;5078598;28;20451;-82
2022/08/25 11:19:26;;;;;;;5.83;3.23;;;24.80;99.90;;;;;;5075472;28;20528;-82
2022/08/25 11:22:02;;;;;;;7.10;4.63;;;24.80;99.90;;;;;;5078885;28;20448;-83
2022/08/25 11:24:40;;;;;;;6.07;4.70;;;24.90;99.90;;;;;;5077033;28;20950;-83
2022/08/25 11:27:14;;;;;;;4.83;3.90;;;24.70;99.90;;;;;;5082095;28;20491;-82
2022/08/25 11:29:45;;;;;;;4.77;4.00;;;24.60;99.90;;;;;;5083437;28;21200;-82
2022/08/25 11:32:14;;;;;;;4.90;3.37;;;24.30;99.90;;;;;;5082722;28;20463;-83
2022/08/25 11:34:42;;;;;;;2.73;2.53;;;24.40;99.90;;;;;;5079862;28;20454;-87
2022/08/25 11:37:20;;;;;;;3.00;1.30;;;24.60;99.90;;;;;;5077272;28;20945;-82
2022/08/25 11:40:27;;;;;;;1.07;0.90;;;24.80;99.90;;;;;;5071052;28;20455;-82
2022/08/25 11:43:06;;;;;;;1.47;0.87;;;25.40;99.90;;;;;;5058914;28;20486;-82
2022/08/25 11:45:54;;;;;;;1.10;1.00;;;25.40;99.90;;;;;;5079269;28;20585;-82
2022/08/25 11:48:31;;;;;;;2.53;1.37;;;25.10;99.90;;;;;;5078564;28;21040;-82
2022/08/25 11:51:06;;;;;;;3.37;2.60;;;24.60;99.90;;;;;;5073700;28;20514;-82
2022/08/25 11:53:35;;;;;;;1.43;1.33;;;24.40;99.90;;;;;;5076455;28;20542;-82
2022/08/25 11:56:05;;;;;;;2.97;1.70;;;24.90;99.90;;;;;;5078799;28;20556;-85
2022/08/25 11:58:48;;;;;;;1.63;1.53;;;25.00;99.90;;;;;;5074255;28;20516;-82
2022/08/25 12:01:51;;;;;;;3.80;3.10;;;25.60;99.90;;;;;;5071290;28;20487;-84
2022/08/25 12:04:33;;;;;;;1.23;1.13;;;25.70;99.90;;;;;;5076797;28;20462;-82
2022/08/25 12:07:27;;;;;;;3.67;3.37;;;26.10;99.90;;;;;;5074763;28;21078;-85
2022/08/25 12:10:21;;;;;;;3.60;3.30;;;25.80;99.90;;;;;;5059594;28;21232;-86
2022/08/25 12:13:23;;;;;;;3.27;2.50;;;26.00;99.90;;;;;;5076181;28;20520;-84
2022/08/25 12:16:00;;;;;;;2.20;1.90;;;26.20;99.90;;;;;;5075717;28;20456;-82
2022/08/25 12:18:45;;;;;;;1.80;1.70;;;25.90;99.90;;;;;;5079938;28;20495;-86
2022/08/25 12:21:32;;;;;;;1.90;1.80;;;25.70;99.90;;;;;;5082889;28;20443;-85
2022/08/25 12:24:16;;;;;;;3.17;2.97;;;25.90;99.90;;;;;;5079520;28;20488;-82
2022/08/25 12:26:50;;;;;;;2.20;2.03;;;26.00;99.90;;;;;;5078990;28;20474;-82
2022/08/25 12:29:27;;;;;;;2.90;2.60;;;26.00;99.90;;;;;;5083596;28;20443;-83
2022/08/25 12:32:27;;;;;;;4.20;3.70;;;26.10;99.90;;;;;;5078373;28;20491;-82
2022/08/25 12:35:16;;;;;;;3.20;2.60;;;26.40;99.90;;;;;;5086878;28;20447;-85
2022/08/25 12:37:59;;;;;;;6.00;5.10;;;26.30;99.90;;;;;;5084900;28;20459;-83
2022/08/25 12:40:33;;;;;;;2.90;2.47;;;26.50;99.90;;;;;;5079471;28;20976;-82
2022/08/25 12:43:04;;;;;;;3.87;3.47;;;26.40;99.90;;;;;;5081116;28;20455;-82
2022/08/25 12:45:43;;;;;;;5.20;4.30;;;26.20;99.90;;;;;;5086710;28;20860;-82
2022/08/25 12:48:42;;;;;;;3.83;3.40;;;26.40;99.90;;;;;;5087770;28;20523;-86
2022/08/25 12:51:17;;;;;;;4.30;4.00;;;26.60;99.90;;;;;;5073044;28;20462;-85
2022/08/25 12:53:48;;;;;;;4.40;4.00;;;26.30;99.90;;;;;;5080782;28;21171;-82
2022/08/25 12:56:26;;;;;;;4.17;3.13;;;26.50;99.90;;;;;;5083899;28;21726;-82
2022/08/25 12:59:12;;;;;;;6.37;3.40;;;26.50;99.90;;;;;;5081435;28;20462;-86
2022/08/25 13:01:59;;;;;;;3.53;3.23;;;26.40;99.90;;;;;;5071520;28;20510;-82
2022/08/25 13:04:56;;;;;;;5.90;3.37;;;26.20;99.90;;;;;;5068205;28;20458;-81
2022/08/25 13:07:43;;;;;;;4.00;3.60;;;26.10;99.90;;;;;;5069355;28;22899;-85
2022/08/25 13:10:22;;;;;;;3.33;2.47;;;26.10;99.90;;;;;;5077620;28;20459;-86
2022/08/25 13:12:58;;;;;;;6.47;2.50;;;26.00;99.90;;;;;;5079523;28;20466;-85
2022/08/25 13:15:33;;;;;;;3.13;2.83;;;26.00;99.90;;;;;;5079068;28;20514;-83
2022/08/25 13:18:18;;;;;;;4.33;2.90;;;25.90;99.90;;;;;;5082347;28;20462;-82